Pelagos — SZSW — position and weather

sailwx.info

Track history (hours):
 
Tides and Currents Weather Stations Pressure Air Temp Water Temp Dewpoint Dewpoint Depression Visibility Wind Speed Wind Dir Waves Ship Positions

Pelagos

Last reported at 2018-Feb-25 03:29 UTC. Time now 2018-Feb-25 03:53 UTC.
Position N 57°31' E 009°25'.

Length 249 m; draft 8 m.

Type: Tanker. MMSI: 240335000.

Date/timePositionNaut miles runAvg speedWind from/ knotsBaromVisibWave heightAir tempDewpointWater temp
2018-Feb-25 03:29N 57°31' E 009°25'3 5.2
2018-Feb-25 03:00N 57°30' E 009°21'295 6.5
2018-Feb-23 05:15N 53°37' E 004°00'1 4.2
2018-Feb-23 04:58N 53°36' E 003°59'2 4.4
2018-Feb-23 04:29N 53°35' E 003°56'2 4.5
2018-Feb-23 03:57N 53°33' E 003°53'  
2018-Feb-20 17:30N 52°07' E 002°45'0 0.0
2018-Feb-20 16:57N 52°07' E 002°45'0 0.0
2018-Feb-20 16:30N 52°07' E 002°45'0 0.0
2018-Feb-20 02:00N 52°07' E 002°45'0 0.1
2018-Feb-20 01:30N 52°07' E 002°45'0 0.0
2018-Feb-20 00:54N 52°07' E 002°45'  
2018-Feb-17 00:42N 52°07' E 002°45'0 0.0
2018-Feb-16 10:45N 52°07' E 002°45'0 0.1
2018-Feb-16 10:27N 52°07' E 002°45'  
Track history (hours):
 
Tides and Currents Weather Stations Pressure Air Temp Water Temp Dewpoint Dewpoint Depression Visibility Wind Speed Wind Dir Waves Ship Positions

Pelagos

Last reported at 2018-Feb-25 03:29 UTC. Time now 2018-Feb-25 03:53 UTC.
Position N 57°31' E 009°25'.

Length 249 m; draft 8 m.

Type: Tanker. MMSI: 240335000.

Date/timePositionNaut miles runAvg speedWind from/ knotsBaromVisibWave heightAir tempDewpointWater temp
2018-Feb-25 03:29N 57°31' E 009°25'3 5.2
2018-Feb-25 03:00N 57°30' E 009°21'295 6.5
2018-Feb-23 05:15N 53°37' E 004°00'1 4.2
2018-Feb-23 04:58N 53°36' E 003°59'2 4.4
2018-Feb-23 04:29N 53°35' E 003°56'2 4.5
2018-Feb-23 03:57N 53°33' E 003°53'  
2018-Feb-20 17:30N 52°07' E 002°45'0 0.0
2018-Feb-20 16:57N 52°07' E 002°45'0 0.0
2018-Feb-20 16:30N 52°07' E 002°45'0 0.0
2018-Feb-20 02:00N 52°07' E 002°45'0 0.1
2018-Feb-20 01:30N 52°07' E 002°45'0 0.0
2018-Feb-20 00:54N 52°07' E 002°45'  
2018-Feb-17 00:42N 52°07' E 002°45'0 0.0
2018-Feb-16 10:45N 52°07' E 002°45'0 0.1
2018-Feb-16 10:27N 52°07' E 002°45'  

Dump ship's entire track history